Airport View

Enter AWOS ICAO identifier for current METAR.

ex. KFNL

KL52 251555Z AUTO 00000KT 3SM BR OVC042 15/15 A2995 RMK A01

25 Oct 2020 16:00

Frequency: 118.375

Phone: 805-489-1305

Other Area AWOS: KSBP - KSMX - KVBG - KLPC